Time;durP1;ratioP1;P1;durP2;ratioP2;P2;SDS_P1;SDS_P2;PMS_P1;PMS_P2;Temp;Humidity;BMP_temperature;BMP_pressure;BME280_temperature;BME280_humidity;BME280_pressure;Samples;Min_cycle;Max_cycle;Signal;HPM_P1;HPM_P2
2022/10/04 00:00:24;;;;;;;;;;;21.60;84.60;;;;;;5105857;28;19991;-44
2022/10/04 00:02:50;;;;;;;;;;;21.60;84.60;;;;;;5117301;28;19914;-42
2022/10/04 00:05:17;;;;;;;;;;;21.60;84.70;;;;;;5117214;28;19920;-42
2022/10/04 00:07:45;;;;;;;;;;;21.50;84.80;;;;;;5117248;28;19958;-42
2022/10/04 00:10:22;;;;;;;;;;;21.50;84.80;;;;;;5116966;28;19961;-42
2022/10/04 00:13:04;;;;;;;;;;;21.40;84.90;;;;;;5116866;28;19961;-42
2022/10/04 00:15:31;;;;;;;;;;;21.40;85.10;;;;;;5117080;28;19907;-42
2022/10/04 00:18:04;;;;;;;;;;;21.30;85.20;;;;;;5117167;28;19954;-41
2022/10/04 00:20:52;;;;;;;;;;;21.30;85.30;;;;;;5116621;28;20358;-43
2022/10/04 00:23:23;;;;;;;;;;;21.20;85.50;;;;;;5116837;28;19935;-43
2022/10/04 00:25:53;;;;;;;;;;;21.20;85.60;;;;;;5116578;28;19912;-42
2022/10/04 00:28:18;;;;;;;;;;;21.20;85.90;;;;;;5097339;28;19912;-42
2022/10/04 00:30:44;;;;;;;;;;;21.10;85.80;;;;;;5116779;28;20320;-42
2022/10/04 00:33:09;;;;;;;;;;;21.10;85.90;;;;;;5116765;28;19926;-43
2022/10/04 00:35:35;;;;;;;;;;;21.10;86.00;;;;;;5116508;28;19912;-42
2022/10/04 00:38:00;;;;;;;;;;;21.10;86.10;;;;;;5116746;28;19908;-43
2022/10/04 00:40:32;;;;;;;;;;;21.10;86.10;;;;;;5116633;28;20407;-42
2022/10/04 00:43:00;;;;;;;;;;;21.10;86.20;;;;;;5116663;28;20366;-43
2022/10/04 00:45:32;;;;;;;;;;;21.10;86.40;;;;;;5116277;28;20278;-42
2022/10/04 00:48:07;;;;;;;;;;;21.00;86.30;;;;;;5116248;28;19919;-42
2022/10/04 00:50:50;;;;;;;;;;;21.00;86.40;;;;;;5116089;28;19941;-42
2022/10/04 00:53:18;;;;;;;;;;;21.10;86.40;;;;;;5116442;28;19908;-41
2022/10/04 00:55:47;;;;;;;;;;;21.10;86.30;;;;;;5116316;28;19914;-43
2022/10/04 00:58:16;;;;;;;;;;;21.10;86.10;;;;;;5116344;28;19915;-43
2022/10/04 01:00:42;;;;;;;;;;;21.10;86.00;;;;;;5104026;28;19909;-43
2022/10/04 01:03:10;;;;;;;;;;;21.10;86.00;;;;;;5095810;28;19908;-43
2022/10/04 01:05:39;;;;;;;;;;;21.10;86.00;;;;;;5095742;28;19927;-42
2022/10/04 01:08:04;;;;;;;;;;;21.10;86.00;;;;;;5095648;28;19935;-42
2022/10/04 01:10:31;;;;;;;;;;;21.10;86.00;;;;;;5095779;28;20367;-42
2022/10/04 01:13:06;;;;;;;;;;;21.10;86.10;;;;;;5095589;28;19908;-42
2022/10/04 01:15:47;;;;;;;;;;;21.10;86.10;;;;;;5095477;28;19908;-42
2022/10/04 01:18:14;;;;;;;;;;;21.10;85.90;;;;;;5095214;28;20357;-42
2022/10/04 01:20:53;;;;;;;;;;;21.10;86.20;;;;;;5095347;28;19934;-42
2022/10/04 01:23:40;;;;;;;;;;;21.10;86.40;;;;;;5095329;28;19912;-41
2022/10/04 01:26:28;;;;;;;;;;;21.00;86.10;;;;;;5095050;28;19996;-41
2022/10/04 01:28:58;;;;;;;;;;;21.00;86.30;;;;;;5084891;28;19917;-42
2022/10/04 01:31:25;;;;;;;;;;;21.00;86.40;;;;;;5095126;28;19908;-42
2022/10/04 01:33:50;;;;;;;;;;;21.00;86.60;;;;;;5095585;28;19957;-42
2022/10/04 01:36:16;;;;;;;;;;;21.00;86.60;;;;;;5094839;28;19912;-42
2022/10/04 01:38:42;;;;;;;;;;;21.00;86.60;;;;;;5095144;28;20342;-43
2022/10/04 01:41:09;;;;;;;;;;;21.00;86.50;;;;;;5094711;28;19987;-41
2022/10/04 01:43:36;;;;;;;;;;;21.00;86.70;;;;;;5095115;28;19908;-42
2022/10/04 01:46:04;;;;;;;;;;;21.00;86.70;;;;;;5094894;28;19912;-42
2022/10/04 01:48:34;;;;;;;;;;;21.00;86.60;;;;;;5094680;28;19916;-42
2022/10/04 01:51:14;;;;;;;;;;;21.00;86.70;;;;;;5094664;28;19919;-42
2022/10/04 01:53:42;;;;;;;;;;;21.00;86.60;;;;;;5094884;28;19961;-43
2022/10/04 01:56:12;;;;;;;;;;;21.10;86.50;;;;;;5094569;28;20400;-41
2022/10/04 01:59:00;;;;;;;;;;;21.10;86.40;;;;;;5094479;28;19909;-42
2022/10/04 02:01:30;;;;;;;;;;;21.10;86.30;;;;;;5087031;28;19908;-42
2022/10/04 02:04:04;;;;;;;;;;;21.10;86.30;;;;;;5094897;28;20284;-43
2022/10/04 02:06:36;;;;;;;;;;;21.10;86.30;;;;;;5094698;28;20301;-43
2022/10/04 02:09:06;;;;;;;;;;;21.10;86.30;;;;;;5094765;28;19919;-42
2022/10/04 02:11:32;;;;;;;;;;;21.10;86.30;;;;;;5094363;28;20290;-42
2022/10/04 02:13:59;;;;;;;;;;;21.00;86.40;;;;;;5094599;28;19915;-42
2022/10/04 02:16:25;;;;;;;;;;;21.00;86.40;;;;;;5094552;28;19908;-42
2022/10/04 02:18:51;;;;;;;;;;;21.00;86.40;;;;;;5094503;28;19919;-42
2022/10/04 02:21:18;;;;;;;;;;;21.00;86.40;;;;;;5094488;28;20275;-42
2022/10/04 02:23:44;;;;;;;;;;;21.00;86.40;;;;;;5094180;28;19954;-42
2022/10/04 02:26:10;;;;;;;;;;;21.00;86.40;;;;;;5094061;28;20410;-42
2022/10/04 02:28:36;;;;;;;;;;;21.00;86.50;;;;;;5094333;28;19912;-42
2022/10/04 02:33:48;;;;;;;;;;;21.00;86.40;;;;;;5094350;28;19933;-42
2022/10/04 02:36:14;;;;;;;;;;;21.00;86.60;;;;;;5094283;28;20015;-41
2022/10/04 02:38:43;;;;;;;;;;;21.00;86.60;;;;;;5094361;28;19912;-42
2022/10/04 02:41:12;;;;;;;;;;;21.00;86.80;;;;;;5093993;28;19908;-42
2022/10/04 02:43:42;;;;;;;;;;;21.00;86.90;;;;;;5094163;28;19937;-42
2022/10/04 02:46:12;;;;;;;;;;;21.00;87.30;;;;;;5094187;28;19908;-41
2022/10/04 02:48:38;;;;;;;;;;;21.00;86.80;;;;;;5093713;28;20347;-42
2022/10/04 02:51:18;;;;;;;;;;;20.90;86.70;;;;;;5094151;28;19920;-41
2022/10/04 02:53:50;;;;;;;;;;;21.00;86.80;;;;;;5098075;28;19962;-43
2022/10/04 02:56:16;;;;;;;;;;;21.00;86.60;;;;;;5098190;28;19943;-42
2022/10/04 02:58:42;;;;;;;;;;;21.10;86.50;;;;;;5097860;28;19934;-41
2022/10/04 03:01:14;;;;;;;;;;;21.10;86.30;;;;;;5113576;28;19912;-42
2022/10/04 03:03:44;;;;;;;;;;;21.20;86.20;;;;;;5118293;28;20002;-41
2022/10/04 03:06:11;;;;;;;;;;;21.20;86.10;;;;;;5118521;28;19924;-42
2022/10/04 03:08:44;;;;;;;;;;;21.10;86.70;;;;;;5118236;28;19957;-43
2022/10/04 03:11:11;;;;;;;;;;;21.10;86.10;;;;;;5118306;28;19912;-41
2022/10/04 03:13:38;;;;;;;;;;;21.10;86.20;;;;;;5118173;28;19907;-42
2022/10/04 03:16:03;;;;;;;;;;;21.10;86.30;;;;;;5118247;28;19915;-43
2022/10/04 03:18:30;;;;;;;;;;;21.10;86.40;;;;;;5118208;28;19908;-42
2022/10/04 03:20:56;;;;;;;;;;;21.10;86.30;;;;;;5117957;28;19914;-42
2022/10/04 03:23:21;;;;;;;;;;;21.00;86.40;;;;;;5117886;28;20010;-41
2022/10/04 03:25:49;;;;;;;;;;;21.00;86.40;;;;;;5117892;28;19962;-42
2022/10/04 03:28:16;;;;;;;;;;;21.00;86.40;;;;;;5117923;28;19916;-42
2022/10/04 03:30:43;;;;;;;;;;;21.00;86.40;;;;;;5117882;28;19919;-41
2022/10/04 03:33:14;;;;;;;;;;;21.00;86.00;;;;;;5118048;28;19984;-42
2022/10/04 03:35:39;;;;;;;;;;;21.00;86.60;;;;;;5117577;28;19908;-42
2022/10/04 03:38:07;;;;;;;;;;;21.00;86.50;;;;;;5117629;28;19907;-40
2022/10/04 03:40:33;;;;;;;;;;;21.00;86.70;;;;;;5117876;28;20014;-41
2022/10/04 03:43:00;;;;;;;;;;;20.90;85.20;;;;;;5117535;28;20365;-42
2022/10/04 03:45:27;;;;;;;;;;;21.00;86.10;;;;;;5117886;28;19933;-42
2022/10/04 03:47:53;;;;;;;;;;;21.00;86.60;;;;;;5117678;28;20262;-42
2022/10/04 03:50:32;;;;;;;;;;;21.00;86.60;;;;;;5117629;28;19959;-42
2022/10/04 03:53:00;;;;;;;;;;;21.00;86.60;;;;;;5117586;28;19908;-43
2022/10/04 03:55:33;;;;;;;;;;;20.90;86.50;;;;;;5117563;28;20403;-42
2022/10/04 03:58:00;;;;;;;;;;;20.90;86.60;;;;;;5117528;28;19914;-41
2022/10/04 04:00:25;;;;;;;;;;;21.00;86.80;;;;;;5107674;28;19966;-42
2022/10/04 04:02:59;;;;;;;;;;;21.00;86.50;;;;;;5096686;28;20335;-42
2022/10/04 04:05:28;;;;;;;;;;;21.10;86.30;;;;;;5096868;28;19965;-42
2022/10/04 04:07:59;;;;;;;;;;;21.10;86.20;;;;;;5096765;28;19912;-42
2022/10/04 04:10:26;;;;;;;;;;;21.20;86.10;;;;;;5096570;28;20374;-41
2022/10/04 04:12:57;;;;;;;;;;;21.20;86.00;;;;;;5078474;28;19909;-41
2022/10/04 04:15:27;;;;;;;;;;;21.20;86.00;;;;;;5096432;28;19954;-42
2022/10/04 04:17:53;;;;;;;;;;;21.20;85.90;;;;;;5096370;28;19953;-41
2022/10/04 04:20:29;;;;;;;;;;;21.10;85.90;;;;;;5096272;28;19908;-41
2022/10/04 04:22:58;;;;;;;;;;;21.10;85.90;;;;;;5096613;28;20286;-41
2022/10/04 04:25:25;;;;;;;;;;;21.10;85.90;;;;;;5096456;28;19994;-43
2022/10/04 04:27:51;;;;;;;;;;;21.10;86.00;;;;;;5096097;28;19916;-40
2022/10/04 04:30:17;;;;;;;;;;;21.10;86.10;;;;;;5096009;28;20278;-41
2022/10/04 04:32:45;;;;;;;;;;;21.00;86.10;;;;;;5096235;28;19908;-41
2022/10/04 04:35:21;;;;;;;;;;;21.00;86.20;;;;;;5096173;28;20279;-41
2022/10/04 04:38:01;;;;;;;;;;;21.00;86.20;;;;;;5077983;28;20389;-41
2022/10/04 04:40:26;;;;;;;;;;;21.00;86.30;;;;;;5096274;28;19908;-41
2022/10/04 04:42:56;;;;;;;;;;;21.00;86.30;;;;;;5095863;28;20382;-41
2022/10/04 04:45:24;;;;;;;;;;;21.00;86.40;;;;;;5095795;28;19994;-42
2022/10/04 04:47:51;;;;;;;;;;;21.00;86.40;;;;;;5095698;28;19962;-42
2022/10/04 04:50:18;;;;;;;;;;;21.00;86.40;;;;;;5095965;28;19915;-41
2022/10/04 04:52:45;;;;;;;;;;;21.00;86.40;;;;;;5077682;28;19914;-42
2022/10/04 04:55:18;;;;;;;;;;;20.90;86.30;;;;;;5095577;28;19912;-42
2022/10/04 04:57:45;;;;;;;;;;;20.90;86.40;;;;;;5095259;28;19908;-41
2022/10/04 05:00:15;;;;;;;;;;;20.90;86.50;;;;;;5103230;28;19918;-41
2022/10/04 05:02:49;;;;;;;;;;;20.90;86.40;;;;;;5116207;28;19947;-41
2022/10/04 05:05:19;;;;;;;;;;;20.90;86.40;;;;;;5115989;28;19926;-41
2022/10/04 05:07:45;;;;;;;;;;;21.00;86.40;;;;;;5115862;28;19919;-42
2022/10/04 05:10:30;;;;;;;;;;;21.00;86.30;;;;;;5115911;28;19916;-43
2022/10/04 05:12:57;;;;;;;;;;;21.10;86.10;;;;;;5115511;28;20366;-41
2022/10/04 05:15:22;;;;;;;;;;;21.20;85.90;;;;;;5106916;28;19913;-41
2022/10/04 05:17:48;;;;;;;;;;;21.20;85.70;;;;;;5094679;28;19953;-41
2022/10/04 05:20:14;;;;;;;;;;;21.30;85.60;;;;;;5095112;28;19916;-42
2022/10/04 05:22:42;;;;;;;;;;;21.30;85.40;;;;;;5095083;28;20320;-41
2022/10/04 05:25:09;;;;;;;;;;;21.30;85.40;;;;;;5095045;28;19908;-42
2022/10/04 05:27:36;;;;;;;;;;;21.30;85.30;;;;;;5094645;28;20362;-42
2022/10/04 05:30:07;;;;;;;;;;;21.30;85.30;;;;;;5094802;28;20289;-41
2022/10/04 05:32:39;;;;;;;;;;;21.30;85.30;;;;;;5076816;28;19908;-41
2022/10/04 05:35:15;;;;;;;;;;;21.20;85.30;;;;;;5094418;28;20263;-42
2022/10/04 05:37:46;;;;;;;;;;;21.20;85.50;;;;;;5094501;28;19912;-40
2022/10/04 05:40:12;;;;;;;;;;;21.20;85.50;;;;;;5094549;28;20295;-41
2022/10/04 05:42:44;;;;;;;;;;;21.20;83.80;;;;;;5074312;28;19963;-40
2022/10/04 05:45:16;;;;;;;;;;;21.10;84.20;;;;;;5094172;28;19908;-41
2022/10/04 05:47:44;;;;;;;;;;;21.10;84.30;;;;;;5098584;28;20265;-41
2022/10/04 05:50:14;;;;;;;;;;;21.10;84.20;;;;;;5087303;28;20113;-41
2022/10/04 05:52:39;;;;;;;;;;;21.00;84.10;;;;;;5083403;28;19912;-41
2022/10/04 05:55:11;;;;;;;;;;;21.00;84.60;;;;;;5088532;28;19915;-43
2022/10/04 05:57:45;;;;;;;;;;;21.00;85.40;;;;;;5094362;28;19908;-46
2022/10/04 06:00:13;;;;;;;;;;;21.00;85.40;;;;;;5099012;28;19927;-44
2022/10/04 06:02:44;;;;;;;;;;;21.00;85.40;;;;;;5094405;28;20319;-43
2022/10/04 06:05:14;;;;;;;;;;;21.00;85.40;;;;;;5094186;28;19920;-44
2022/10/04 06:07:52;;;;;;;;;;;21.00;85.60;;;;;;5094036;28;20374;-42
2022/10/04 06:10:29;;;;;;;;;;;20.90;85.20;;;;;;5094039;28;19916;-43
2022/10/04 06:12:57;;;;;;;;;;;20.90;84.20;;;;;;5094057;28;19923;-45
2022/10/04 06:15:23;;;;;;;;;;;20.90;85.30;;;;;;5094083;28;19962;-43
2022/10/04 06:18:01;;;;;;;;;;;20.90;85.60;;;;;;5094159;28;19908;-43
2022/10/04 06:20:45;;;;;;;;;;;20.90;85.70;;;;;;5094371;28;20305;-44
2022/10/04 06:23:12;;;;;;;;;;;20.80;85.70;;;;;;5094277;28;19938;-44
2022/10/04 06:25:47;;;;;;;;;;;20.80;85.80;;;;;;5093777;28;19919;-43
2022/10/04 06:28:13;;;;;;;;;;;20.80;85.90;;;;;;5093629;28;20034;-45
2022/10/04 06:31:01;;;;;;;;;;;20.80;85.90;;;;;;5099057;28;19951;-44
2022/10/04 06:33:36;;;;;;;;;;;20.80;86.00;;;;;;5094368;28;19909;-44
2022/10/04 06:36:34;;;;;;;;;;;20.80;86.10;;;;;;5093901;28;19912;-46
2022/10/04 06:39:18;;;;;;;;;;;20.70;86.20;;;;;;5059454;28;19909;-45
2022/10/04 06:41:43;;;;;;;;;;;20.70;86.40;;;;;;5094037;28;19954;-47
2022/10/04 06:44:27;;;;;;;;;;;20.60;86.50;;;;;;5093869;28;19908;-48
2022/10/04 06:47:08;;;;;;;;;;;20.60;86.60;;;;;;5093701;28;19912;-49
2022/10/04 06:49:37;;;;;;;;;;;20.50;86.70;;;;;;5092958;28;19958;-45
2022/10/04 06:52:21;;;;;;;;;;;20.50;86.80;;;;;;5093761;28;19934;-46
2022/10/04 06:55:08;;;;;;;;;;;20.50;86.90;;;;;;5105465;28;19944;-49
2022/10/04 06:57:52;;;;;;;;;;;20.60;86.80;;;;;;5114080;28;19912;-47
2022/10/04 07:00:20;;;;;;;;;;;20.60;86.70;;;;;;5105603;28;19912;-48
2022/10/04 07:02:51;;;;;;;;;;;20.60;86.60;;;;;;5093533;28;20003;-41
2022/10/04 07:05:29;;;;;;;;;;;20.70;86.70;;;;;;5093419;28;19927;-43
2022/10/04 07:08:06;;;;;;;;;;;20.70;86.60;;;;;;5073064;28;19912;-40
2022/10/04 07:10:35;;;;;;;;;;;20.70;86.40;;;;;;5111563;28;19916;-43
2022/10/04 07:13:05;;;;;;;;;;;20.80;86.50;;;;;;5113330;28;20228;-41
2022/10/04 07:15:33;;;;;;;;;;;20.80;86.40;;;;;;5113680;28;20010;-41
2022/10/04 07:18:04;;;;;;;;;;;20.90;86.30;;;;;;5113555;28;20277;-41
2022/10/04 07:20:33;;;;;;;;;;;20.90;86.20;;;;;;5113801;28;20244;-42
2022/10/04 07:23:01;;;;;;;;;;;20.90;86.20;;;;;;5107306;28;19908;-40
2022/10/04 07:25:30;;;;;;;;;;;21.00;86.20;;;;;;5093421;28;19908;-40
2022/10/04 07:30:50;;;;;;;;;;;20.90;86.20;;;;;;5093308;28;19919;-41
2022/10/04 07:33:20;;;;;;;;;;;21.00;86.30;;;;;;5093161;28;19955;-42
2022/10/04 07:35:57;;;;;;;;;;;21.00;86.30;;;;;;5093346;28;20266;-43
2022/10/04 07:38:28;;;;;;;;;;;21.00;86.30;;;;;;5094735;28;19909;-42
2022/10/04 07:41:02;;;;;;;;;;;21.00;86.30;;;;;;5097197;28;19908;-42
2022/10/04 07:43:29;;;;;;;;;;;21.00;86.30;;;;;;5097416;28;19938;-43
2022/10/04 07:46:14;;;;;;;;;;;21.00;86.40;;;;;;5097094;28;20311;-42
2022/10/04 07:48:39;;;;;;;;;;;21.00;86.30;;;;;;5092264;28;19956;-42
2022/10/04 07:51:24;;;;;;;;;;;21.00;86.30;;;;;;5076972;28;19955;-42
2022/10/04 07:53:54;;;;;;;;;;;21.00;86.30;;;;;;5076738;28;20381;-42
2022/10/04 07:56:30;;;;;;;;;;;21.00;86.30;;;;;;5077073;28;19909;-43
2022/10/04 07:59:16;;;;;;;;;;;21.00;86.30;;;;;;5096527;28;20274;-42
2022/10/04 08:01:44;;;;;;;;;;;21.00;86.30;;;;;;5076411;28;19908;-44
2022/10/04 08:04:13;;;;;;;;;;;21.00;86.20;;;;;;5079275;28;19995;-41
2022/10/04 08:06:48;;;;;;;;;;;21.00;85.70;;;;;;5078686;28;19912;-41
2022/10/04 08:09:32;;;;;;;;;;;21.00;84.90;;;;;;5096554;28;19919;-42
2022/10/04 08:12:07;;;;;;;;;;;21.00;84.70;;;;;;5095128;28;20260;-46
2022/10/04 08:14:32;;;;;;;;;;;21.10;85.70;;;;;;5092615;28;19909;-43
2022/10/04 08:17:01;;;;;;;;;;;21.10;85.70;;;;;;5096117;28;19916;-42
2022/10/04 08:19:45;;;;;;;;;;;21.10;85.70;;;;;;5110472;28;19943;-50
2022/10/04 08:22:16;;;;;;;;;;;21.10;85.80;;;;;;5116823;28;19958;-48
2022/10/04 08:24:57;;;;;;;;;;;21.10;85.80;;;;;;5110112;28;19958;-50
2022/10/04 08:27:41;;;;;;;;;;;21.10;85.80;;;;;;5116721;28;20278;-51
2022/10/04 08:30:15;;;;;;;;;;;21.10;85.80;;;;;;5107919;28;20334;-51
2022/10/04 08:32:51;;;;;;;;;;;21.20;85.90;;;;;;5098180;28;19980;-48
2022/10/04 08:35:18;;;;;;;;;;;21.10;85.90;;;;;;5116490;28;20007;-51
2022/10/04 08:37:52;;;;;;;;;;;21.10;86.00;;;;;;5116105;28;19947;-50
2022/10/04 08:40:26;;;;;;;;;;;21.10;85.90;;;;;;5112823;28;19994;-49
2022/10/04 08:43:05;;;;;;;;;;;21.10;86.00;;;;;;5112866;28;19991;-52
2022/10/04 08:45:43;;;;;;;;;;;21.10;86.00;;;;;;5116393;28;19912;-47
2022/10/04 08:48:21;;;;;;;;;;;21.10;86.10;;;;;;5109616;28;20015;-47
2022/10/04 08:50:54;;;;;;;;;;;21.10;86.20;;;;;;5097092;28;19912;-46
2022/10/04 08:53:38;;;;;;;;;;;21.10;86.20;;;;;;5113535;28;20007;-52
2022/10/04 08:56:17;;;;;;;;;;;21.10;86.10;;;;;;5116046;28;19908;-46
2022/10/04 08:58:46;;;;;;;;;;;21.20;86.10;;;;;;5111509;28;20362;-51
2022/10/04 09:01:44;;;;;;;;;;;21.20;85.90;;;;;;5109017;28;19912;-50
2022/10/04 09:04:28;;;;;;;;;;;21.30;85.80;;;;;;5115721;28;20346;-51
2022/10/04 09:06:59;;;;;;;;;;;21.30;85.70;;;;;;5109137;28;19946;-47
2022/10/04 09:09:47;;;;;;;;;;;21.30;85.70;;;;;;5113204;28;19989;-51
2022/10/04 09:12:30;;;;;;;;;;;21.30;85.70;;;;;;5115644;28;19908;-50
2022/10/04 09:15:06;;;;;;;;;;;21.30;85.80;;;;;;5095363;28;19919;-45
2022/10/04 09:17:50;;;;;;;;;;;21.20;85.80;;;;;;5103125;28;19912;-48
2022/10/04 09:20:20;;;;;;;;;;;21.20;85.80;;;;;;5088773;28;19953;-49
2022/10/04 09:22:46;;;;;;;;;;;21.20;85.80;;;;;;5093853;28;19930;-50
2022/10/04 09:25:44;;;;;;;;;;;21.20;85.90;;;;;;5115532;28;19931;-47
2022/10/04 09:28:19;;;;;;;;;;;21.20;85.90;;;;;;5056508;28;19920;-45
2022/10/04 09:30:51;;;;;;;;;;;21.20;86.00;;;;;;5115526;28;19954;-46
2022/10/04 09:33:24;;;;;;;;;;;21.20;86.10;;;;;;5113068;28;19990;-48
2022/10/04 09:35:50;;;;;;;;;;;21.20;86.00;;;;;;5115174;28;19908;-49
2022/10/04 09:38:27;;;;;;;;;;;21.20;86.10;;;;;;5112019;28;19966;-48
2022/10/04 09:41:19;;;;;;;;;;;21.20;86.20;;;;;;5115124;28;19976;-49
2022/10/04 09:43:53;;;;;;;;;;;21.20;86.20;;;;;;5105847;28;19911;-46
2022/10/04 09:46:37;;;;;;;;;;;21.10;86.20;;;;;;5114818;28;19912;-47
2022/10/04 09:49:15;;;;;;;;;;;21.10;86.30;;;;;;5112573;28;20366;-46
2022/10/04 09:51:52;;;;;;;;;;;21.20;86.30;;;;;;5111053;28;19918;-48
2022/10/04 09:54:43;;;;;;;;;;;21.20;86.20;;;;;;5073710;28;20313;-48
2022/10/04 09:57:09;;;;;;;;;;;21.20;86.10;;;;;;5061791;28;19912;-46
2022/10/04 09:59:55;;;;;;;;;;;21.30;85.90;;;;;;5114596;28;19915;-47
2022/10/04 10:02:28;;;;;;;;;;;21.40;85.80;;;;;;5107227;28;20358;-45
2022/10/04 10:04:58;;;;;;;;;;;21.40;85.60;;;;;;5110059;28;20019;-46
2022/10/04 10:07:27;;;;;;;;;;;21.40;85.60;;;;;;5114301;28;20002;-46
2022/10/04 10:15:45;;;;;;;;;;;21.40;85.60;;;;;;5114411;28;20460;-47
2022/10/04 10:18:29;;;;;;;;;;;21.30;85.70;;;;;;5107601;28;20007;-46
2022/10/04 10:21:17;;;;;;;;;;;21.30;85.90;;;;;;5114473;28;19990;-46
2022/10/04 10:24:06;;;;;;;;;;;21.30;85.90;;;;;;5098180;28;19916;-47
2022/10/04 10:26:38;;;;;;;;;;;21.30;85.90;;;;;;5098119;28;19908;-48
2022/10/04 10:29:13;;;;;;;;;;;21.30;86.00;;;;;;5079208;28;20368;-47
2022/10/04 10:31:49;;;;;;;;;;;21.30;86.00;;;;;;5112051;28;20018;-46
2022/10/04 10:34:34;;;;;;;;;;;21.30;86.00;;;;;;5114509;28;20038;-46
2022/10/04 10:37:08;;;;;;;;;;;21.30;86.10;;;;;;5110200;28;20015;-47
2022/10/04 10:40:00;;;;;;;;;;;21.30;85.80;;;;;;5114023;28;19927;-46
2022/10/04 10:42:38;;;;;;;;;;;21.20;86.20;;;;;;5102056;28;19908;-48
2022/10/04 10:45:08;;;;;;;;;;;21.20;86.20;;;;;;5114206;28;19912;-47
2022/10/04 10:47:45;;;;;;;;;;;21.20;86.20;;;;;;5108810;28;19919;-49
2022/10/04 10:50:14;;;;;;;;;;;21.20;86.20;;;;;;5114540;28;19920;-48
2022/10/04 10:52:39;;;;;;;;;;;21.20;86.20;;;;;;5096224;28;19909;-48
2022/10/04 10:55:18;;;;;;;;;;;21.20;86.10;;;;;;5093898;28;20355;-50
2022/10/04 10:58:03;;;;;;;;;;;21.20;85.90;;;;;;5093396;28;19919;-48
2022/10/04 11:00:42;;;;;;;;;;;21.30;85.80;;;;;;5093292;28;19905;-47
2022/10/04 11:03:37;;;;;;;;;;;21.30;85.60;;;;;;5081264;28;19961;-46
2022/10/04 11:06:21;;;;;;;;;;;21.30;85.60;;;;;;5027821;28;20311;-45
2022/10/04 11:09:05;;;;;;;;;;;21.30;85.60;;;;;;5103257;28;19965;-46
2022/10/04 11:11:45;;;;;;;;;;;21.30;85.60;;;;;;5082397;28;20309;-46
2022/10/04 11:14:13;;;;;;;;;;;21.30;85.60;;;;;;5116956;28;19919;-46
2022/10/04 11:17:05;;;;;;;;;;;21.30;85.60;;;;;;5102631;28;20270;-46
2022/10/04 11:19:34;;;;;;;;;;;21.30;85.60;;;;;;5093269;28;19912;-46
2022/10/04 11:22:05;;;;;;;;;;;21.20;85.50;;;;;;5097291;28;19919;-46
2022/10/04 11:24:50;;;;;;;;;;;21.20;85.50;;;;;;5097075;28;19912;-45
2022/10/04 11:27:23;;;;;;;;;;;21.20;85.60;;;;;;5097079;28;19920;-46
2022/10/04 11:30:08;;;;;;;;;;;21.20;85.60;;;;;;5102990;28;19916;-48
2022/10/04 11:32:52;;;;;;;;;;;21.20;85.50;;;;;;5106541;28;20003;-48
2022/10/04 11:35:29;;;;;;;;;;;21.20;85.70;;;;;;5116168;28;20389;-52
2022/10/04 11:38:01;;;;;;;;;;;21.20;85.80;;;;;;5111650;28;20282;-48
2022/10/04 11:40:32;;;;;;;;;;;21.20;85.90;;;;;;5117699;28;20367;-47
2022/10/04 11:42:58;;;;;;;;;;;21.20;85.90;;;;;;5114922;28;19918;-50
2022/10/04 11:45:32;;;;;;;;;;;21.20;86.00;;;;;;5117472;28;20005;-47
2022/10/04 11:48:01;;;;;;;;;;;21.20;86.00;;;;;;5113105;28;19915;-49
2022/10/04 11:50:34;;;;;;;;;;;21.20;86.00;;;;;;5117491;28;19912;-48
2022/10/04 11:53:02;;;;;;;;;;;21.30;85.80;;;;;;5111315;28;19912;-48
2022/10/04 11:55:52;;;;;;;;;;;21.40;85.60;;;;;;5117174;28;19907;-49
2022/10/04 11:58:24;;;;;;;;;;;21.40;85.60;;;;;;5113832;28;19934;-47
2022/10/04 12:00:56;;;;;;;;;;;21.50;85.60;;;;;;5111451;28;19919;-48
2022/10/04 12:03:52;;;;;;;;;;;21.50;85.50;;;;;;5110649;28;19912;-46
2022/10/04 12:06:22;;;;;;;;;;;21.40;85.50;;;;;;5025021;28;19922;-46
2022/10/04 12:08:53;;;;;;;;;;;21.50;85.70;;;;;;5116607;28;19930;-45
2022/10/04 12:14:23;;;;;;;;;;;21.40;85.60;;;;;;5112603;28;20273;-49
2022/10/04 12:17:07;;;;;;;;;;;21.40;85.80;;;;;;5117171;28;20262;-49
2022/10/04 12:20:12;;;;;;;;;;;21.40;85.90;;;;;;5114091;28;20255;-51
2022/10/04 12:22:53;;;;;;;;;;;21.40;86.10;;;;;;5014284;28;20338;-45
2022/10/04 12:25:46;;;;;;;;;;;21.30;86.10;;;;;;5011945;28;20238;-50
2022/10/04 12:28:30;;;;;;;;;;;21.30;86.20;;;;;;5092013;28;19911;-47
2022/10/04 12:31:12;;;;;;;;;;;21.30;86.30;;;;;;5104018;28;19946;-47
2022/10/04 12:33:38;;;;;;;;;;;21.30;86.30;;;;;;5113979;28;20017;-48
2022/10/04 12:36:07;;;;;;;;;;;21.30;86.40;;;;;;5114428;28;20376;-46
2022/10/04 12:38:45;;;;;;;;;;;21.30;86.50;;;;;;5110396;28;19935;-44
2022/10/04 12:41:16;;;;;;;;;;;21.30;87.00;;;;;;5104390;28;19916;-47
2022/10/04 12:43:55;;;;;;;;;;;21.20;86.50;;;;;;5100432;28;19912;-50
2022/10/04 12:46:39;;;;;;;;;;;21.30;86.60;;;;;;5104782;28;20477;-48
2022/10/04 12:49:15;;;;;;;;;;;21.30;86.50;;;;;;5115033;28;19961;-48
2022/10/04 12:51:46;;;;;;;;;;;21.30;86.40;;;;;;5113742;28;20347;-47
2022/10/04 12:54:18;;;;;;;;;;;21.40;86.30;;;;;;5115163;28;19912;-46
2022/10/04 12:56:53;;;;;;;;;;;21.40;86.10;;;;;;5113933;28;19918;-49
2022/10/04 12:59:21;;;;;;;;;;;21.40;85.90;;;;;;5108127;28;19955;-53
2022/10/04 13:02:00;;;;;;;;;;;21.50;85.70;;;;;;5103590;28;19919;-52
2022/10/04 13:04:35;;;;;;;;;;;21.50;85.70;;;;;;5105903;28;19920;-48
2022/10/04 13:07:00;;;;;;;;;;;21.50;85.60;;;;;;5093699;28;19916;-49
2022/10/04 13:09:35;;;;;;;;;;;21.50;85.60;;;;;;5106227;28;19912;-46
2022/10/04 13:12:00;;;;;;;;;;;21.50;85.70;;;;;;5111168;28;19912;-47
2022/10/04 13:14:38;;;;;;;;;;;21.50;85.70;;;;;;5100673;28;19908;-48
2022/10/04 13:17:10;;;;;;;;;;;21.50;85.80;;;;;;5102778;28;19912;-46
2022/10/04 13:19:39;;;;;;;;;;;21.50;86.00;;;;;;5094245;28;20006;-49
2022/10/04 13:22:24;;;;;;;;;;;21.40;86.00;;;;;;5105679;28;20303;-51
2022/10/04 13:24:57;;;;;;;;;;;21.40;86.00;;;;;;5087203;28;20278;-51
2022/10/04 13:27:43;;;;;;;;;;;21.40;86.10;;;;;;5079505;28;20278;-48
2022/10/04 13:30:22;;;;;;;;;;;21.40;86.20;;;;;;5043514;28;19919;-50
2022/10/04 13:32:57;;;;;;;;;;;21.40;86.30;;;;;;5097966;28;20037;-46
2022/10/04 13:35:25;;;;;;;;;;;21.40;86.30;;;;;;5094278;28;19913;-47
2022/10/04 13:37:56;;;;;;;;;;;21.40;86.30;;;;;;5094709;28;19989;-49
2022/10/04 13:40:25;;;;;;;;;;;21.40;86.20;;;;;;5100643;28;19908;-51
2022/10/04 13:43:13;;;;;;;;;;;21.40;86.20;;;;;;5114790;28;20068;-49
2022/10/04 13:45:49;;;;;;;;;;;21.40;86.10;;;;;;5068237;28;19909;-49
2022/10/04 13:48:19;;;;;;;;;;;21.40;86.10;;;;;;5074095;28;19913;-46
2022/10/04 13:51:00;;;;;;;;;;;21.40;86.20;;;;;;5074086;28;20477;-48
2022/10/04 13:59:00;;;;;;;;;;;21.40;86.40;;;;;;5101387;28;19956;-51
2022/10/04 14:01:37;;;;;;;;;;;21.40;86.40;;;;;;5094394;28;20003;-56
2022/10/04 14:04:21;;;;;;;;;;;21.40;86.40;;;;;;5104985;28;19912;-52
2022/10/04 14:07:05;;;;;;;;;;;21.40;86.40;;;;;;5094909;28;19912;-46
2022/10/04 14:09:39;;;;;;;;;;;21.40;86.50;;;;;;5087722;28;19943;-47
2022/10/04 14:12:11;;;;;;;;;;;21.30;86.60;;;;;;5093984;28;19915;-50
2022/10/04 14:14:39;;;;;;;;;;;21.30;86.60;;;;;;5094255;28;19916;-50
2022/10/04 14:17:12;;;;;;;;;;;21.30;86.60;;;;;;5093869;28;20422;-50
2022/10/04 14:19:48;;;;;;;;;;;21.30;86.70;;;;;;5094424;28;19935;-46
2022/10/04 14:22:32;;;;;;;;;;;21.30;86.70;;;;;;5093919;28;20317;-46
2022/10/04 14:25:10;;;;;;;;;;;21.30;86.80;;;;;;5093642;28;19908;-45
2022/10/04 14:27:38;;;;;;;;;;;21.30;86.90;;;;;;5093684;28;19916;-49
2022/10/04 14:30:06;;;;;;;;;;;21.30;86.80;;;;;;5093760;28;20057;-47
2022/10/04 14:33:02;;;;;;;;;;;21.30;86.80;;;;;;5093496;28;20259;-52
2022/10/04 14:35:52;;;;;;;;;;;21.30;86.70;;;;;;5093768;28;19912;-50
2022/10/04 14:38:25;;;;;;;;;;;21.30;86.70;;;;;;5093551;28;19912;-51
2022/10/04 14:41:07;;;;;;;;;;;21.30;86.60;;;;;;5093693;28;19912;-49
2022/10/04 14:43:51;;;;;;;;;;;21.40;86.60;;;;;;5078664;28;19958;-50
2022/10/04 14:46:16;;;;;;;;;;;21.30;86.50;;;;;;5096177;28;20307;-52
2022/10/04 14:48:48;;;;;;;;;;;21.30;86.60;;;;;;5099167;28;20011;-54
2022/10/04 14:51:19;;;;;;;;;;;21.40;86.60;;;;;;5113964;28;19923;-47
2022/10/04 14:53:53;;;;;;;;;;;21.40;86.60;;;;;;5114262;28;19984;-47
2022/10/04 14:56:31;;;;;;;;;;;21.40;86.70;;;;;;5113773;28;19915;-50
2022/10/04 14:59:03;;;;;;;;;;;21.40;86.70;;;;;;5114189;28;20323;-51
2022/10/04 15:01:30;;;;;;;;;;;21.40;86.60;;;;;;5095258;28;19995;-51
2022/10/04 15:04:14;;;;;;;;;;;21.40;86.70;;;;;;5093764;28;19999;-53
2022/10/04 15:06:40;;;;;;;;;;;21.40;86.70;;;;;;5093726;28;19940;-49
2022/10/04 15:09:05;;;;;;;;;;;21.40;86.70;;;;;;5093791;28;19951;-48
2022/10/04 15:11:52;;;;;;;;;;;21.30;86.60;;;;;;5093549;28;19920;-50